Time;durP1;ratioP1;P1;durP2;ratioP2;P2;SDS_P1;SDS_P2;PMS_P1;PMS_P2;Temp;Humidity;BMP_temperature;BMP_pressure;BME280_temperature;BME280_humidity;BME280_pressure;Samples;Min_cycle;Max_cycle;Signal;HPM_P1;HPM_P2
2022/01/21 05:10:10;;;;;;;5.97;3.03;;;;;;;-1.83;79.66;100795.69;6313576;26;6608915;-80
2022/01/21 05:13:16;;;;;;;6.97;3.10;;;;;;;-1.82;79.68;100797.38;6584017;27;34155;-80
2022/01/21 05:16:37;;;;;;;4.05;3.37;;;;;;;-1.85;79.45;100786.16;6580066;27;35124;-80
2022/01/21 05:19:41;;;;;;;4.78;3.17;;;;;;;-1.88;79.04;100784.53;6579608;27;33702;-80
2022/01/21 05:22:45;;;;;;;6.03;3.42;;;;;;;-1.94;79.79;100781.41;6579396;27;34254;-80
2022/01/21 05:25:49;;;;;;;4.70;3.20;;;;;;;-1.91;79.79;100789.16;6579182;27;33514;-80
2022/01/21 05:28:52;;;;;;;5.97;2.97;;;;;;;-1.93;79.28;100791.00;6579289;27;34108;-80
2022/01/21 05:31:56;;;;;;;5.68;3.28;;;;;;;-1.90;80.10;100799.63;6580783;27;34183;-80
2022/01/21 05:34:59;;;;;;;7.75;3.60;;;;;;;-1.79;79.88;100801.62;6581044;27;34085;-81
2022/01/21 05:38:02;;;;;;;6.90;3.90;;;;;;;-1.81;79.39;100803.53;6587904;27;33767;-81
2022/01/21 05:41:05;;;;;;;3.90;2.75;;;;;;;-1.80;78.96;100804.38;6587189;27;34469;-80
2022/01/21 05:44:15;;;;;;;4.03;3.28;;;;;;;-1.73;78.65;100797.78;6582615;27;34477;-81
2022/01/21 05:47:18;;;;;;;4.70;3.12;;;;;;;-1.71;78.13;100817.88;6581169;27;32639;-80
2022/01/21 05:50:21;;;;;;;6.40;2.75;;;;;;;-1.74;78.47;100817.22;6584757;27;34739;-81
2022/01/21 05:53:24;;;;;;;8.50;3.47;;;;;;;-1.76;77.91;100819.09;6596713;27;33870;-81
2022/01/21 05:56:30;;;;;;;4.72;3.17;;;;;;;-1.77;78.23;100825.31;6588573;27;35358;-80
2022/01/21 05:59:34;;;;;;;5.15;2.95;;;;;;;-1.79;78.37;100828.03;6580751;27;34031;-80
2022/01/21 06:02:38;;;;;;;8.88;3.47;;;;;;;-1.78;78.21;100829.75;6580247;27;34210;-80
2022/01/21 06:05:43;;;;;;;3.50;3.15;;;;;;;-1.88;78.00;100829.41;6581541;27;34105;-81
2022/01/21 06:08:46;;;;;;;5.40;3.12;;;;;;;-1.82;77.85;100842.25;6583720;27;34198;-80
2022/01/21 06:11:51;;;;;;;4.72;3.20;;;;;;;-1.81;77.58;100840.47;6580685;27;33877;-80
2022/01/21 06:14:53;;;;;;;6.12;3.60;;;;;;;-1.77;76.85;100851.69;6580338;27;33869;-80
2022/01/21 06:17:57;;;;;;;7.70;3.70;;;;;;;-1.87;77.23;100852.22;6579982;27;33990;-80
2022/01/21 06:21:01;;;;;;;6.65;4.07;;;;;;;-2.01;77.49;100865.34;6579630;27;34042;-80
2022/01/21 06:24:04;;;;;;;5.72;3.15;;;;;;;-1.99;78.37;100876.66;6579915;27;34719;-80
2022/01/21 06:27:07;;;;;;;3.67;3.30;;;;;;;-2.00;77.92;100895.22;6579535;27;33629;-80
2022/01/21 06:30:11;;;;;;;6.32;3.35;;;;;;;-2.01;77.25;100899.62;6584154;27;34388;-80
2022/01/21 06:33:13;;;;;;;4.95;3.40;;;;;;;-2.10;78.12;100908.06;6583290;27;36181;-80
2022/01/21 06:36:16;;;;;;;8.77;3.25;;;;;;;-2.20;78.04;100917.41;6580158;27;34896;-80
2022/01/21 06:39:19;;;;;;;8.23;3.40;;;;;;;-2.14;77.65;100919.69;6578673;27;33940;-80
2022/01/21 06:42:23;;;;;;;4.65;3.08;;;;;;;-2.10;76.42;100930.00;6581104;27;33790;-84
2022/01/21 06:45:26;;;;;;;7.45;3.70;;;;;;;-2.21;76.60;100931.53;6591502;27;34378;-84
2022/01/21 06:48:29;;;;;;;5.03;3.15;;;;;;;-2.23;76.71;100947.41;6578728;27;34141;-84
2022/01/21 06:51:32;;;;;;;8.32;3.50;;;;;;;-2.19;76.41;100943.69;6579293;27;34476;-84
2022/01/21 06:54:35;;;;;;;7.60;3.00;;;;;;;-2.18;76.53;100947.19;6579680;27;34394;-81
2022/01/21 06:57:39;;;;;;;6.40;3.08;;;;;;;-2.19;76.92;100958.69;6579564;27;33638;-81
2022/01/21 07:00:42;;;;;;;3.30;3.00;;;;;;;-2.15;76.56;100961.06;6582289;27;34058;-80
2022/01/21 07:03:45;;;;;;;6.47;3.22;;;;;;;-2.11;76.43;100962.59;6579994;27;35400;-81
2022/01/21 07:06:48;;;;;;;5.87;3.05;;;;;;;-2.02;75.69;100971.78;6579810;27;34443;-81
2022/01/21 07:09:51;;;;;;;5.97;3.30;;;;;;;-2.04;76.87;100981.59;6580126;27;34125;-80
2022/01/21 07:12:54;;;;;;;7.80;3.65;;;;;;;-1.96;76.26;100997.88;6586623;27;34610;-81
2022/01/21 07:15:59;;;;;;;5.60;4.22;;;;;;;-1.87;76.13;101007.06;6592801;27;34523;-80
2022/01/21 07:19:02;;;;;;;7.37;3.83;;;;;;;-1.79;74.99;101017.19;6582013;27;34240;-80
2022/01/21 07:22:05;;;;;;;4.80;3.42;;;;;;;-1.69;75.33;101010.50;6579393;27;33786;-81
2022/01/21 07:25:09;;;;;;;4.68;3.30;;;;;;;-1.61;74.36;101018.81;6580621;27;34203;-81
2022/01/21 07:28:12;;;;;;;7.28;3.28;;;;;;;-1.61;74.16;101009.16;6579775;27;34264;-80
2022/01/21 07:31:15;;;;;;;8.13;3.53;;;;;;;-1.47;73.18;100999.59;6580551;27;33991;-81
2022/01/21 07:34:17;;;;;;;7.50;3.20;;;;;;;-1.36;72.96;101013.06;6580355;27;33860;-80
2022/01/21 07:37:22;;;;;;;7.82;3.25;;;;;;;-1.17;71.15;101004.94;6580919;27;33596;-80
2022/01/21 07:40:26;;;;;;;5.70;3.35;;;;;;;-1.10;71.09;101011.59;6579518;27;34043;-80
2022/01/21 07:43:29;;;;;;;6.55;3.10;;;;;;;-1.11;70.82;101015.19;6579578;27;33630;-80
2022/01/21 07:46:31;;;;;;;6.50;3.67;;;;;;;-1.00;70.68;101025.97;6579533;27;34502;-80
2022/01/21 07:49:34;;;;;;;4.65;3.60;;;;;;;-1.01;70.04;101013.69;6579344;27;34698;-81
2022/01/21 07:52:37;;;;;;;5.65;2.92;;;;;;;-0.88;69.39;101016.47;6579673;27;34325;-81
2022/01/21 07:55:40;;;;;;;6.72;3.50;;;;;;;-0.76;68.65;101023.72;6582051;27;34051;-81
2022/01/21 07:58:44;;;;;;;6.35;3.47;;;;;;;-0.80;69.61;101008.12;6580811;27;34055;-81
2022/01/21 08:01:47;;;;;;;9.70;3.45;;;;;;;-1.05;69.29;101013.94;6593786;27;34214;-81
2022/01/21 08:04:50;;;;;;;8.27;3.20;;;;;;;-1.17;69.28;101000.53;6582294;27;34285;-81
2022/01/21 08:07:52;;;;;;;5.82;3.17;;;;;;;-1.22;69.65;101014.94;6578953;27;33961;-81
2022/01/21 08:10:56;;;;;;;7.80;3.70;;;;;;;-1.17;69.66;101026.06;6572342;27;33870;-81
2022/01/21 08:13:58;;;;;;;4.20;2.90;;;;;;;-1.12;68.94;101029.31;6579667;27;34680;-81
2022/01/21 08:17:02;;;;;;;5.53;3.30;;;;;;;-1.15;69.13;101021.56;6579057;27;33530;-81
2022/01/21 08:20:05;;;;;;;5.30;3.42;;;;;;;-1.13;68.48;101032.06;6579539;27;34729;-81
2022/01/21 08:23:11;;;;;;;7.05;3.42;;;;;;;-1.04;69.29;101040.31;6579718;27;34854;-81
2022/01/21 08:26:14;;;;;;;9.20;3.80;;;;;;;-0.97;69.07;101043.44;6584764;27;33495;-81
2022/01/21 08:29:18;;;;;;;9.60;3.60;;;;;;;-0.81;68.82;101044.28;6583503;27;34178;-81
2022/01/21 08:32:21;;;;;;;4.95;3.65;;;;;;;-0.89;68.30;101053.59;6580397;27;33421;-81
2022/01/21 08:35:24;;;;;;;9.10;3.65;;;;;;;-0.78;68.99;101043.25;6582864;27;33963;-81
2022/01/21 08:38:26;;;;;;;8.48;3.40;;;;;;;-0.62;68.14;101045.84;6592323;27;33986;-81
2022/01/21 08:41:30;;;;;;;6.80;3.40;;;;;;;-0.55;67.29;101041.91;6594329;27;33657;-81
2022/01/21 08:44:32;;;;;;;5.55;4.10;;;;;;;-0.49;66.55;101068.00;6579784;27;35371;-81
2022/01/21 08:47:35;;;;;;;8.60;3.28;;;;;;;-0.44;66.11;101055.34;6579518;27;34272;-81
2022/01/21 08:50:38;;;;;;;7.20;3.20;;;;;;;-0.42;66.39;101056.09;6586362;27;33780;-81
2022/01/21 08:53:44;;;;;;;6.90;3.47;;;;;;;-0.30;65.99;101065.94;6579329;27;33558;-81
2022/01/21 08:56:48;;;;;;;6.87;3.22;;;;;;;-0.30;64.78;101062.47;6579088;27;33604;-81
2022/01/21 08:59:51;;;;;;;9.13;3.70;;;;;;;-0.37;64.95;101067.28;6579555;27;34512;-83
2022/01/21 09:02:54;;;;;;;8.95;3.00;;;;;;;-0.27;64.69;101076.34;6579416;27;33828;-85
2022/01/21 09:05:57;;;;;;;5.50;2.92;;;;;;;-0.31;64.38;101080.13;6579874;27;34672;-85
2022/01/21 09:09:00;;;;;;;7.10;3.03;;;;;;;-0.38;64.24;101077.94;6577635;27;34860;-86
2022/01/21 09:12:04;;;;;;;9.40;3.20;;;;;;;-0.32;64.59;101089.03;6579118;27;34312;-82
2022/01/21 09:15:08;;;;;;;4.68;3.03;;;;;;;-0.11;63.96;101100.12;6580132;27;34342;-82
2022/01/21 09:18:17;;;;;;;3.72;2.83;;;;;;;-0.14;63.63;101099.47;6584448;27;34122;-81
2022/01/21 09:21:23;;;;;;;5.12;2.83;;;;;;;0.07;63.23;101100.81;6581919;27;34141;-82
2022/01/21 09:24:26;;;;;;;3.05;2.50;;;;;;;0.15;61.54;101095.06;6585358;27;34691;-81
2022/01/21 09:27:29;;;;;;;4.00;3.05;;;;;;;0.18;58.95;101093.06;6587528;27;34810;-81
2022/01/21 09:30:32;;;;;;;4.80;2.55;;;;;;;0.13;58.33;101095.13;6585702;27;34669;-81
2022/01/21 09:33:36;;;;;;;3.42;2.70;;;;;;;0.07;57.36;101082.28;6584439;27;35112;-81
2022/01/21 09:36:42;;;;;;;6.30;2.45;;;;;;;0.11;57.44;101077.63;6581116;27;34412;-82
2022/01/21 09:39:45;;;;;;;5.22;2.50;;;;;;;0.17;55.96;101070.16;6579660;27;33979;-81
2022/01/21 09:42:48;;;;;;;2.65;2.17;;;;;;;0.24;55.47;101088.34;6582505;27;34153;-81
2022/01/21 09:45:54;;;;;;;5.37;2.40;;;;;;;0.43;55.22;101075.66;6585478;27;34109;-82
2022/01/21 09:49:07;;;;;;;8.52;2.55;;;;;;;0.62;54.01;101084.16;6577179;27;33963;-82
2022/01/21 09:52:13;;;;;;;4.95;2.58;;;;;;;0.44;55.01;101082.69;6578910;27;33534;-82
2022/01/21 09:55:20;;;;;;;3.85;2.35;;;;;;;0.58;55.45;101077.34;6596093;26;33888;-82
2022/01/21 09:58:23;;;;;;;7.72;2.75;;;;;;;0.62;56.45;101083.31;6590142;27;35041;-82
2022/01/21 10:01:27;;;;;;;5.32;2.83;;;;;;;0.74;56.95;101085.19;6579342;27;33765;-82
2022/01/21 10:04:36;;;;;;;3.87;2.50;;;;;;;1.03;56.45;101088.63;6578924;27;33900;-82
2022/01/21 10:07:45;;;;;;;6.97;2.53;;;;;;;0.98;56.28;101088.06;6579334;27;33970;-82
2022/01/21 10:10:48;;;;;;;3.10;2.45;;;;;;;1.22;54.84;101087.44;6579349;27;34058;-82
2022/01/21 10:13:56;;;;;;;11.32;3.03;;;;;;;0.88;56.81;101074.56;6578964;27;34620;-82
2022/01/21 10:16:59;;;;;;;6.93;3.15;;;;;;;0.70;57.16;101067.75;6578828;27;34586;-82
2022/01/21 10:20:20;;;;;;;4.62;2.70;;;;;;;0.81;57.22;101075.88;6581338;27;34295;-81
2022/01/21 10:23:24;;;;;;;6.15;2.80;;;;;;;0.76;57.26;101075.34;6582100;27;33850;-81
2022/01/21 10:26:27;;;;;;;5.30;2.70;;;;;;;0.79;57.91;101058.38;6594770;27;34998;-81
2022/01/21 10:29:40;;;;;;;9.18;3.10;;;;;;;0.76;58.80;101055.94;6582413;27;35252;-81
2022/01/21 10:32:43;;;;;;;5.15;2.97;;;;;;;0.58;59.39;101055.28;6579677;27;33811;-86
2022/01/21 10:36:26;;;;;;;6.12;2.97;;;;;;;0.26;60.99;101039.63;6580073;27;33951;-82
2022/01/21 10:39:31;;;;;;;6.12;3.30;;;;;;;-0.09;62.97;101047.97;6586341;27;34056;-82
2022/01/21 10:42:35;;;;;;;7.28;3.17;;;;;;;-0.22;63.82;101046.13;6579900;27;33620;-82
2022/01/21 10:45:48;;;;;;;5.20;3.17;;;;;;;-0.30;64.71;101015.69;6579866;27;33895;-81
2022/01/21 10:49:01;;;;;;;6.32;3.40;;;;;;;-0.31;65.44;101056.31;6579477;27;33898;-81
2022/01/21 10:52:05;;;;;;;6.07;3.40;;;;;;;0.17;65.22;101051.63;6580369;27;34442;-81
2022/01/21 10:55:32;;;;;;;4.18;3.35;;;;;;;0.33;63.21;101079.84;6580238;27;34694;-81
2022/01/21 10:58:40;;;;;;;8.75;3.58;;;;;;;0.28;63.84;101068.66;6580595;27;34637;-81
2022/01/21 11:01:59;;;;;;;6.68;3.60;;;;;;;0.41;63.52;101077.53;6579433;27;33480;-81
2022/01/21 11:05:11;;;;;;;5.28;3.20;;;;;;;0.52;62.30;101096.28;6580384;27;33687;-81
2022/01/21 11:08:15;;;;;;;8.30;4.12;;;;;;;0.38;63.09;101102.44;6580537;27;33435;-80
2022/01/21 11:11:23;;;;;;;10.90;4.70;;;;;;;0.48;63.39;101092.13;6581521;27;33641;-80
2022/01/21 11:14:27;;;;;;;10.73;3.73;;;;;;;0.52;63.00;101083.03;6589140;27;34807;-85
2022/01/21 11:17:30;;;;;;;9.75;3.72;;;;;;;0.51;62.34;101083.12;6580871;27;33706;-84
2022/01/21 11:20:38;;;;;;;8.07;3.62;;;;;;;0.75;61.62;101070.97;6583125;27;34246;-81
2022/01/21 11:23:41;;;;;;;4.80;3.30;;;;;;;0.88;62.23;101066.59;6595448;26;34339;-81
2022/01/21 11:27:05;;;;;;;6.35;3.95;;;;;;;1.02;61.53;101067.50;6601219;26;34277;-80
2022/01/21 11:30:08;;;;;;;5.72;3.35;;;;;;;0.88;61.24;101042.75;6582021;27;36542;-80
2022/01/21 11:33:12;;;;;;;7.03;3.87;;;;;;;0.78;61.44;101038.97;6586607;27;33842;-80
2022/01/21 11:36:15;;;;;;;8.02;4.05;;;;;;;0.97;61.18;101043.13;6579562;27;35151;-80
2022/01/21 11:39:24;;;;;;;6.07;3.75;;;;;;;0.83;61.71;101030.75;6579835;27;33984;-80
2022/01/21 11:42:27;;;;;;;8.43;3.67;;;;;;;0.77;61.78;101020.53;6580170;27;34835;-81
2022/01/21 11:45:54;;;;;;;7.68;3.47;;;;;;;0.69;61.82;101015.72;6578813;27;33989;-81
2022/01/21 11:48:57;;;;;;;9.88;3.90;;;;;;;0.95;62.14;101014.03;6580548;27;33072;-81
2022/01/21 11:52:21;;;;;;;9.00;3.65;;;;;;;1.27;60.09;101006.59;6580406;27;34723;-81
2022/01/21 11:55:40;;;;;;;8.18;3.35;;;;;;;1.57;59.22;101001.03;6579411;27;35026;-81
2022/01/21 11:59:02;;;;;;;8.73;3.53;;;;;;;1.33;58.75;100990.28;6578293;27;34537;-81
2022/01/21 12:02:28;;;;;;;9.90;3.60;;;;;;;1.03;60.77;100987.03;6579423;27;33900;-81
2022/01/21 12:05:33;;;;;;;9.20;4.12;;;;;;;0.94;60.84;100999.09;6580757;27;34141;-82
2022/01/21 12:08:48;;;;;;;6.15;3.40;;;;;;;1.37;59.20;100980.31;6582396;27;34509;-81
2022/01/21 12:11:56;;;;;;;6.12;3.53;;;;;;;1.98;57.89;100970.75;6587638;27;34232;-79
2022/01/21 12:15:03;;;;;;;9.82;3.40;;;;;;;1.70;57.77;100987.78;6580047;27;33981;-81
2022/01/21 12:18:18;;;;;;;8.10;3.60;;;;;;;1.49;58.31;100976.84;6579371;27;33947;-79
2022/01/21 12:21:32;;;;;;;5.28;3.65;;;;;;;2.45;55.99;100974.50;6579140;27;34911;-81
2022/01/21 12:24:51;;;;;;;8.57;3.58;;;;;;;3.09;54.43;100976.88;6581360;27;34299;-81
2022/01/21 12:28:16;;;;;;;6.97;3.07;;;;;;;2.99;53.61;100972.37;6580021;27;34944;-80
2022/01/21 12:31:21;;;;;;;6.47;3.78;;;;;;;2.58;54.30;100984.25;6583730;27;34293;-81
2022/01/21 12:34:29;;;;;;;7.50;3.45;;;;;;;3.08;54.47;100977.84;6579552;27;34252;-81
2022/01/21 12:37:51;;;;;;;8.13;3.22;;;;;;;4.35;49.70;100980.44;6579858;27;34773;-81
2022/01/21 12:41:23;;;;;;;7.62;3.00;;;;;;;3.48;50.51;100982.84;6594928;27;34314;-81
2022/01/21 12:44:31;;;;;;;5.93;3.05;;;;;;;2.52;53.90;100990.84;6588260;27;35500;-81
2022/01/21 12:47:43;;;;;;;7.60;3.22;;;;;;;2.21;54.91;100992.19;6581061;27;34701;-81
2022/01/21 12:50:57;;;;;;;11.55;3.85;;;;;;;2.10;55.22;100998.25;6580241;27;34410;-81
2022/01/21 12:57:24;;;;;;;8.32;3.60;;;;;;;1.87;56.27;100994.56;6586688;27;35430;-81
2022/01/21 13:00:27;;;;;;;9.65;3.10;;;;;;;1.77;56.17;100996.16;6580115;27;34060;-81
2022/01/21 13:03:49;;;;;;;7.30;3.10;;;;;;;1.68;57.52;101000.28;6578557;27;33388;-80
2022/01/21 13:07:10;;;;;;;6.03;2.95;;;;;;;1.71;55.54;101002.75;6578780;27;34252;-81
2022/01/21 13:10:27;;;;;;;6.20;2.90;;;;;;;1.38;55.52;101008.56;6578684;27;34799;-81
2022/01/21 13:13:49;;;;;;;7.70;3.00;;;;;;;1.21;55.22;101012.31;6578515;27;33700;-80
2022/01/21 13:17:15;;;;;;;5.60;2.60;;;;;;;1.22;55.75;101010.50;6585709;27;34182;-81
2022/01/21 13:20:31;;;;;;;3.30;2.58;;;;;;;0.92;56.10;101003.63;6579367;27;33937;-81
2022/01/21 13:23:47;;;;;;;4.97;2.55;;;;;;;0.97;55.57;101000.69;6582014;27;34154;-82
2022/01/21 13:26:52;;;;;;;8.65;2.65;;;;;;;1.05;55.34;100998.38;6590495;27;33745;-81
2022/01/21 13:30:01;;;;;;;5.47;3.53;;;;;;;1.29;54.69;100998.56;6587309;27;34322;-82
2022/01/21 13:33:12;;;;;;;8.48;2.90;;;;;;;1.33;54.25;100994.75;6593846;27;34439;-79
2022/01/21 13:36:40;;;;;;;10.90;3.28;;;;;;;1.37;54.28;100996.22;6583799;27;34987;-82
2022/01/21 13:39:45;;;;;;;5.25;2.65;;;;;;;1.21;54.81;100992.91;6586648;27;34670;-80
2022/01/21 13:42:48;;;;;;;4.93;3.10;;;;;;;1.12;54.23;100997.03;6580734;27;35120;-80
2022/01/21 13:46:09;;;;;;;6.45;2.60;;;;;;;1.05;54.28;100985.97;6593408;27;33999;-81
2022/01/21 13:49:12;;;;;;;8.85;2.65;;;;;;;0.94;54.42;100987.62;6591445;27;33566;-81
2022/01/21 13:52:15;;;;;;;5.85;2.80;;;;;;;0.94;55.35;100988.50;6591076;27;34412;-81
2022/01/21 13:55:30;;;;;;;7.20;3.30;;;;;;;0.84;55.46;100974.12;6592193;27;34211;-81
2022/01/21 13:58:36;;;;;;;4.87;3.05;;;;;;;0.76;55.64;100979.94;6592309;27;34392;-81
2022/01/21 14:01:40;;;;;;;3.33;2.50;;;;;;;0.76;55.95;100977.28;6592105;27;34395;-81
2022/01/21 14:05:02;;;;;;;5.57;2.95;;;;;;;0.70;56.41;100956.47;6580756;27;34043;-80
2022/01/21 14:08:32;;;;;;;7.97;3.03;;;;;;;0.63;56.92;100966.63;6581483;27;33985;-81
2022/01/21 14:11:43;;;;;;;6.07;3.08;;;;;;;0.70;56.50;100958.28;6570418;27;35543;-81
2022/01/21 14:14:48;;;;;;;6.53;3.00;;;;;;;0.67;56.84;100965.50;6581433;27;33933;-81
2022/01/21 14:17:51;;;;;;;4.37;2.85;;;;;;;0.63;56.43;100963.97;6581579;27;33994;-82
2022/01/21 14:21:17;;;;;;;5.43;3.00;;;;;;;0.61;55.96;100944.66;6581623;27;33777;-81
2022/01/21 14:24:22;;;;;;;6.90;3.05;;;;;;;0.60;54.67;100944.78;6589888;27;33655;-81
2022/01/21 14:27:29;;;;;;;4.93;3.08;;;;;;;0.52;55.59;100944.41;6581366;27;34826;-81
2022/01/21 14:30:39;;;;;;;7.12;2.87;;;;;;;0.46;55.24;100956.25;6582072;27;34080;-81
2022/01/21 14:33:42;;;;;;;;;;;;;;;0.38;55.00;100953.25;6584421;27;33987;-82
2022/01/21 14:37:02;;;;;;;5.50;2.90;;;;;;;0.38;55.53;100955.91;6596521;27;34516;-81
2022/01/21 14:40:07;;;;;;;3.53;2.80;;;;;;;0.33;56.12;100955.37;6596400;27;34193;-81
2022/01/21 14:43:19;;;;;;;7.57;2.90;;;;;;;0.28;55.75;100974.19;6591034;27;34988;-79
2022/01/21 14:46:26;;;;;;;5.80;2.70;;;;;;;0.22;56.43;100974.56;6581504;27;34210;-81
2022/01/21 14:49:30;;;;;;;6.68;3.08;;;;;;;0.21;56.18;100968.44;6581386;27;33993;-81
2022/01/21 14:52:43;;;;;;;6.28;3.17;;;;;;;0.18;55.41;100973.06;6581402;27;34235;-81
2022/01/21 14:55:50;;;;;;;7.75;3.35;;;;;;;0.20;55.43;100976.47;6582072;27;33622;-85
2022/01/21 14:59:13;;;;;;;9.45;2.90;;;;;;;0.16;55.31;100973.16;6582910;27;34195;-82
2022/01/21 15:02:33;;;;;;;6.60;2.83;;;;;;;0.11;53.75;100983.19;6581408;27;34009;-81
2022/01/21 15:05:38;;;;;;;5.35;2.95;;;;;;;0.08;53.25;100991.31;6581472;27;34181;-81
2022/01/21 15:08:51;;;;;;;5.40;2.50;;;;;;;0.05;53.17;100991.50;6580786;27;35293;-82
2022/01/21 15:12:12;;;;;;;6.93;2.92;;;;;;;0.01;53.20;101005.03;6580594;27;33737;-81
2022/01/21 15:15:49;;;;;;;6.70;2.70;;;;;;;-0.05;53.37;100999.19;6580354;27;34335;-81
2022/01/21 15:18:54;;;;;;;5.22;2.70;;;;;;;-0.12;53.58;101003.13;6580430;27;34747;-81
2022/01/21 15:21:59;;;;;;;6.03;3.10;;;;;;;-0.14;53.42;101009.47;6585313;27;33882;-80
2022/01/21 15:25:02;;;;;;;7.82;3.05;;;;;;;-0.12;53.35;101002.28;6586125;27;34089;-81
2022/01/21 15:28:08;;;;;;;5.65;2.70;;;;;;;-0.27;53.44;101012.84;6581330;27;33913;-81
2022/01/21 15:31:11;;;;;;;5.57;2.85;;;;;;;-0.32;53.96;101016.72;6581541;27;34226;-81
2022/01/21 15:34:14;;;;;;;9.07;3.20;;;;;;;-0.38;53.94;101011.78;6586096;27;34376;-81
2022/01/21 15:37:17;;;;;;;5.50;2.95;;;;;;;-0.42;54.43;101015.56;6584043;27;34842;-81
2022/01/21 15:40:21;;;;;;;6.32;2.90;;;;;;;-0.43;54.08;101014.72;6580882;27;33557;-80
2022/01/21 15:43:28;;;;;;;6.55;2.78;;;;;;;-0.44;54.92;100996.28;6582022;27;33938;-85
2022/01/21 15:46:31;;;;;;;7.53;2.97;;;;;;;-0.34;54.93;100997.47;6582160;27;34519;-82
2022/01/21 15:49:34;;;;;;;5.15;2.80;;;;;;;-0.38;55.12;100996.81;6595580;27;34896;-82
2022/01/21 15:52:57;;;;;;;6.62;3.08;;;;;;;-0.42;55.46;101003.19;6588300;27;34895;-82
2022/01/21 15:56:00;;;;;;;6.72;2.80;;;;;;;-0.53;54.97;100992.41;6589729;27;34668;-80
2022/01/21 15:59:04;;;;;;;6.50;2.62;;;;;;;-0.56;55.31;100987.28;6594023;27;34185;-81
2022/01/21 16:02:07;;;;;;;6.55;3.20;;;;;;;-0.66;55.45;100980.88;6580148;27;34612;-81
2022/01/21 16:05:10;;;;;;;5.45;2.75;;;;;;;-0.62;54.62;100988.50;6579965;27;34565;-80
2022/01/21 16:08:16;;;;;;;6.47;2.70;;;;;;;-0.61;54.33;100989.37;6579584;27;34903;-80
2022/01/21 16:11:19;;;;;;;9.80;3.25;;;;;;;-0.63;55.34;100985.97;6579716;27;34021;-80
2022/01/21 16:14:22;;;;;;;5.93;3.17;;;;;;;-0.59;55.40;100992.78;6580906;27;34264;-80
2022/01/21 16:17:25;;;;;;;9.95;3.25;;;;;;;-0.68;54.82;101002.09;6587513;27;34215;-80
2022/01/21 16:20:28;;;;;;;5.72;2.95;;;;;;;-0.73;54.08;101001.53;6583949;27;34411;-80
2022/01/21 16:23:32;;;;;;;6.47;3.22;;;;;;;-0.77;53.51;101000.00;6582243;27;33725;-80
2022/01/21 16:26:37;;;;;;;4.12;2.80;;;;;;;-0.80;54.42;101002.81;6581048;27;33666;-80
2022/01/21 16:29:40;;;;;;;6.68;2.58;;;;;;;-0.92;53.94;101012.31;6580738;27;34075;-81
2022/01/21 16:32:42;;;;;;;6.28;2.85;;;;;;;-0.82;53.03;101010.88;6580429;27;33691;-81
2022/01/21 16:35:46;;;;;;;9.23;3.12;;;;;;;-0.80;53.19;101022.19;6580014;27;34073;-81
2022/01/21 16:38:48;;;;;;;5.18;2.83;;;;;;;-0.87;54.08;101010.28;6580009;27;34897;-81
2022/01/21 16:41:54;;;;;;;7.03;2.80;;;;;;;-0.90;53.76;101014.88;6579804;27;34840;-80
2022/01/21 16:44:57;;;;;;;8.40;2.62;;;;;;;-0.81;52.65;101017.00;6580136;27;33575;-81
2022/01/21 16:48:00;;;;;;;4.18;2.60;;;;;;;-0.88;53.36;101019.13;6580047;27;34329;-81
2022/01/21 16:51:03;;;;;;;7.30;3.30;;;;;;;-0.80;52.33;101024.81;6580655;27;34830;-81
2022/01/21 16:54:06;;;;;;;4.53;2.70;;;;;;;-0.80;51.98;101016.87;6579924;27;33986;-81
